Terminal Aerodrome Forecast
Issued by NWS

Home | Current Version | Previous Version | Text Only | Print | Product List | Glossary On
Versions: 1 2 3 4 5 6 7 8 9 10 11 12 13 14 15 16 17 18 19 20 21 22 23 24 25 26 27 28 29
000
FTUS41 KGYX 021722
TAFRKD
TAF
KRKD 021722Z 0218/0318 10008KT 1/2SM FG OVC002
     FM021900 14008KT 4SM BR OVC004
     FM030000 19004KT 1/2SM FG VV002
     FM030300 27004KT 1/4SM FG VV001
      TEMPO 0303/0307 3SM -TSRA BR BKN004 OVC020CB
     FM030800 VRB03KT 1SM BR BKN002 BKN020
     FM031300 30012KT P6SM SCT030 SCT100
      AMD LTD TO CLD VIS AND WIND=

USA.gov is the U.S. government's official web portal to all federal, state and local government web resources and services.